sensor_id;sensor_type;location;lat;lon;timestamp;P1;durP1;ratioP1;P2;durP2;ratioP2
68473;SDS011;55461;52.066;5.194;2023-01-29T00:01:31;28.7;;;19.3;;
68473;SDS011;55461;52.066;5.194;2023-01-29T00:03:08;30.1;;;19.0;;
68473;SDS011;55461;52.066;5.194;2023-01-29T00:06:22;31.2;;;20.0;;
68473;SDS011;55461;52.066;5.194;2023-01-29T00:08:00;29.9;;;19.5;;
68473;SDS011;55461;52.066;5.194;2023-01-29T00:09:37;31.4;;;19.3;;
68473;SDS011;55461;52.066;5.194;2023-01-29T00:12:52;29.6;;;19.2;;
68473;SDS011;55461;52.066;5.194;2023-01-29T00:14:29;30.7;;;19.2;;
68473;SDS011;55461;52.066;5.194;2023-01-29T00:16:05;29.5;;;19.3;;
68473;SDS011;55461;52.066;5.194;2023-01-29T00:17:42;28.8;;;19.2;;
68473;SDS011;55461;52.066;5.194;2023-01-29T00:20:56;31.2;;;18.91;;
68473;SDS011;55461;52.066;5.194;2023-01-29T00:22:34;31.0;;;19.11;;
68473;SDS011;55461;52.066;5.194;2023-01-29T00:24:10;29.2;;;19.3;;
68473;SDS011;55461;52.066;5.194;2023-01-29T00:27:24;30.6;;;19.7;;
68473;SDS011;55461;52.066;5.194;2023-01-29T00:29:01;30.8;;;20.41;;
68473;SDS011;55461;52.066;5.194;2023-01-29T00:30:38;32.0;;;19.91;;
68473;SDS011;55461;52.066;5.194;2023-01-29T00:32:15;27.7;;;18.61;;
68473;SDS011;55461;52.066;5.194;2023-01-29T00:35:28;27.6;;;18.61;;
68473;SDS011;55461;52.066;5.194;2023-01-29T00:37:07;28.8;;;19.2;;
68473;SDS011;55461;52.066;5.194;2023-01-29T00:38:45;27.2;;;18.7;;
68473;SDS011;55461;52.066;5.194;2023-01-29T00:46:09;28.2;;;18.61;;
68473;SDS011;55461;52.066;5.194;2023-01-29T00:47:46;28.4;;;19.11;;
68473;SDS011;55461;52.066;5.194;2023-01-29T00:49:23;29.3;;;19.11;;
68473;SDS011;55461;52.066;5.194;2023-01-29T00:51:01;29.0;;;18.8;;
68473;SDS011;55461;52.066;5.194;2023-01-29T00:54:18;28.0;;;19.2;;
68473;SDS011;55461;52.066;5.194;2023-01-29T00:55:54;26.8;;;17.91;;
68473;SDS011;55461;52.066;5.194;2023-01-29T00:57:31;28.1;;;19.2;;
68473;SDS011;55461;52.066;5.194;2023-01-29T01:00:48;28.2;;;18.3;;
68473;SDS011;55461;52.066;5.194;2023-01-29T01:03:29;28.9;;;18.61;;
68473;SDS011;55461;52.066;5.194;2023-01-29T01:05:07;25.9;;;17.11;;
68473;SDS011;55461;52.066;5.194;2023-01-29T01:06:51;29.3;;;18.41;;
68473;SDS011;55461;52.066;5.194;2023-01-29T01:10:56;29.6;;;18.8;;
68473;SDS011;55461;52.066;5.194;2023-01-29T01:12:34;30.5;;;18.61;;
68473;SDS011;55461;52.066;5.194;2023-01-29T01:14:10;29.5;;;18.5;;
68473;SDS011;55461;52.066;5.194;2023-01-29T01:17:24;30.9;;;18.7;;
68473;SDS011;55461;52.066;5.194;2023-01-29T01:19:01;28.0;;;17.8;;
68473;SDS011;55461;52.066;5.194;2023-01-29T01:20:39;28.6;;;17.61;;
68473;SDS011;55461;52.066;5.194;2023-01-29T01:23:53;28.8;;;18.11;;
68473;SDS011;55461;52.066;5.194;2023-01-29T01:25:29;29.4;;;18.61;;
68473;SDS011;55461;52.066;5.194;2023-01-29T01:27:06;26.1;;;17.41;;
68473;SDS011;55461;52.066;5.194;2023-01-29T01:28:43;29.4;;;18.3;;
68473;SDS011;55461;52.066;5.194;2023-01-29T01:31:58;28.2;;;18.11;;
68473;SDS011;55461;52.066;5.194;2023-01-29T01:33:36;28.4;;;18.11;;
68473;SDS011;55461;52.066;5.194;2023-01-29T01:35:14;27.5;;;18.2;;
68473;SDS011;55461;52.066;5.194;2023-01-29T01:38:28;27.3;;;17.61;;
68473;SDS011;55461;52.066;5.194;2023-01-29T01:40:13;27.1;;;17.61;;
68473;SDS011;55461;52.066;5.194;2023-01-29T01:41:53;27.5;;;17.3;;
68473;SDS011;55461;52.066;5.194;2023-01-29T01:43:45;28.2;;;17.7;;
68473;SDS011;55461;52.066;5.194;2023-01-29T01:45:24;25.3;;;16.61;;
68473;SDS011;55461;52.066;5.194;2023-01-29T01:48:40;27.5;;;17.3;;
68473;SDS011;55461;52.066;5.194;2023-01-29T01:50:21;29.3;;;18.11;;
68473;SDS011;55461;52.066;5.194;2023-01-29T01:52:02;31.0;;;18.3;;
68473;SDS011;55461;52.066;5.194;2023-01-29T01:55:22;27.6;;;18.3;;
68473;SDS011;55461;52.066;5.194;2023-01-29T01:57:09;27.1;;;17.11;;
68473;SDS011;55461;52.066;5.194;2023-01-29T01:58:51;28.6;;;18.11;;
68473;SDS011;55461;52.066;5.194;2023-01-29T02:00:31;27.7;;;18.2;;
68473;SDS011;55461;52.066;5.194;2023-01-29T02:10:29;28.8;;;17.41;;
68473;SDS011;55461;52.066;5.194;2023-01-29T02:13:52;27.8;;;17.3;;
68473;SDS011;55461;52.066;5.194;2023-01-29T02:15:29;27.6;;;18.61;;
68473;SDS011;55461;52.066;5.194;2023-01-29T02:17:07;30.0;;;19.11;;
68473;SDS011;55461;52.066;5.194;2023-01-29T02:20:25;27.7;;;18.0;;
68473;SDS011;55461;52.066;5.194;2023-01-29T02:22:06;30.0;;;18.41;;
68473;SDS011;55461;52.066;5.194;2023-01-29T02:24:03;31.9;;;19.3;;
68473;SDS011;55461;52.066;5.194;2023-01-29T02:26:19;29.8;;;18.7;;
68473;SDS011;55461;52.066;5.194;2023-01-29T02:28:24;28.8;;;18.61;;
68473;SDS011;55461;52.066;5.194;2023-01-29T02:30:13;29.4;;;18.7;;
68473;SDS011;55461;52.066;5.194;2023-01-29T02:32:04;30.6;;;19.7;;
68473;SDS011;55461;52.066;5.194;2023-01-29T02:33:52;29.2;;;18.61;;
68473;SDS011;55461;52.066;5.194;2023-01-29T02:35:49;27.6;;;18.3;;
68473;SDS011;55461;52.066;5.194;2023-01-29T02:39:20;29.7;;;18.5;;
68473;SDS011;55461;52.066;5.194;2023-01-29T02:41:04;30.7;;;19.2;;
68473;SDS011;55461;52.066;5.194;2023-01-29T02:42:51;30.9;;;19.0;;
68473;SDS011;55461;52.066;5.194;2023-01-29T02:44:37;28.9;;;19.11;;
68473;SDS011;55461;52.066;5.194;2023-01-29T02:46:18;28.3;;;19.11;;
68473;SDS011;55461;52.066;5.194;2023-01-29T02:49:42;28.3;;;19.11;;
68473;SDS011;55461;52.066;5.194;2023-01-29T02:51:25;30.6;;;19.3;;
68473;SDS011;55461;52.066;5.194;2023-01-29T02:53:11;27.9;;;18.61;;
68473;SDS011;55461;52.066;5.194;2023-01-29T02:54:53;31.2;;;19.41;;
68473;SDS011;55461;52.066;5.194;2023-01-29T02:56:35;31.4;;;20.41;;
68473;SDS011;55461;52.066;5.194;2023-01-29T03:00:06;32.1;;;21.1;;
68473;SDS011;55461;52.066;5.194;2023-01-29T03:01:50;29.0;;;19.2;;
68473;SDS011;55461;52.066;5.194;2023-01-29T03:03:33;31.6;;;20.41;;
68473;SDS011;55461;52.066;5.194;2023-01-29T03:05:19;31.5;;;20.6;;
68473;SDS011;55461;52.066;5.194;2023-01-29T03:07:02;33.21;;;21.8;;
68473;SDS011;55461;52.066;5.194;2023-01-29T03:10:29;34.71;;;22.5;;
68473;SDS011;55461;52.066;5.194;2023-01-29T03:12:19;34.0;;;22.5;;
68473;SDS011;55461;52.066;5.194;2023-01-29T03:14:08;36.71;;;22.2;;
68473;SDS011;55461;52.066;5.194;2023-01-29T03:15:54;33.9;;;22.0;;
68473;SDS011;55461;52.066;5.194;2023-01-29T03:17:39;34.1;;;22.3;;
68473;SDS011;55461;52.066;5.194;2023-01-29T03:21:50;36.5;;;23.6;;
68473;SDS011;55461;52.066;5.194;2023-01-29T03:32:13;34.9;;;22.0;;
68473;SDS011;55461;52.066;5.194;2023-01-29T03:33:57;34.81;;;22.4;;
68473;SDS011;55461;52.066;5.194;2023-01-29T03:35:48;34.71;;;22.1;;
68473;SDS011;55461;52.066;5.194;2023-01-29T03:37:32;34.0;;;22.2;;
68473;SDS011;55461;52.066;5.194;2023-01-29T03:39:15;34.21;;;21.5;;
68473;SDS011;55461;52.066;5.194;2023-01-29T03:40:53;34.5;;;22.1;;
68473;SDS011;55461;52.066;5.194;2023-01-29T03:42:37;34.81;;;22.4;;
68473;SDS011;55461;52.066;5.194;2023-01-29T03:46:19;37.0;;;23.4;;
68473;SDS011;55461;52.066;5.194;2023-01-29T03:48:03;35.81;;;22.3;;
68473;SDS011;55461;52.066;5.194;2023-01-29T03:49:50;32.8;;;21.0;;
68473;SDS011;55461;52.066;5.194;2023-01-29T03:51:36;33.3;;;22.5;;
68473;SDS011;55461;52.066;5.194;2023-01-29T03:53:22;32.6;;;21.6;;
68473;SDS011;55461;52.066;5.194;2023-01-29T03:56:52;35.71;;;22.0;;
68473;SDS011;55461;52.066;5.194;2023-01-29T03:58:36;33.8;;;22.0;;
68473;SDS011;55461;52.066;5.194;2023-01-29T04:00:20;32.9;;;21.5;;
68473;SDS011;55461;52.066;5.194;2023-01-29T04:02:04;34.5;;;21.3;;
68473;SDS011;55461;52.066;5.194;2023-01-29T04:03:46;37.0;;;22.6;;
68473;SDS011;55461;52.066;5.194;2023-01-29T04:07:14;39.31;;;22.7;;
68473;SDS011;55461;52.066;5.194;2023-01-29T04:08:55;35.9;;;22.9;;
68473;SDS011;55461;52.066;5.194;2023-01-29T04:10:37;34.4;;;22.3;;
68473;SDS011;55461;52.066;5.194;2023-01-29T04:12:19;35.4;;;21.6;;
68473;SDS011;55461;52.066;5.194;2023-01-29T04:14:02;34.31;;;21.8;;
68473;SDS011;55461;52.066;5.194;2023-01-29T04:17:25;34.21;;;22.7;;
68473;SDS011;55461;52.066;5.194;2023-01-29T04:19:09;35.5;;;22.2;;
68473;SDS011;55461;52.066;5.194;2023-01-29T04:20:47;34.31;;;21.5;;
68473;SDS011;55461;52.066;5.194;2023-01-29T04:22:26;34.21;;;22.4;;
68473;SDS011;55461;52.066;5.194;2023-01-29T04:25:50;35.0;;;22.2;;
68473;SDS011;55461;52.066;5.194;2023-01-29T04:27:43;35.9;;;22.2;;
68473;SDS011;55461;52.066;5.194;2023-01-29T04:29:36;32.6;;;21.2;;
68473;SDS011;55461;52.066;5.194;2023-01-29T04:31:21;35.71;;;21.9;;
68473;SDS011;55461;52.066;5.194;2023-01-29T04:33:06;37.81;;;22.8;;
68473;SDS011;55461;52.066;5.194;2023-01-29T04:34:56;36.5;;;22.7;;
68473;SDS011;55461;52.066;5.194;2023-01-29T04:38:33;35.9;;;23.0;;
68473;SDS011;55461;52.066;5.194;2023-01-29T04:40:22;36.71;;;22.2;;
68473;SDS011;55461;52.066;5.194;2023-01-29T04:42:09;34.21;;;21.8;;
68473;SDS011;55461;52.066;5.194;2023-01-29T04:43:56;35.1;;;22.5;;
68473;SDS011;55461;52.066;5.194;2023-01-29T04:45:39;35.0;;;22.4;;
68473;SDS011;55461;52.066;5.194;2023-01-29T04:47:32;35.81;;;23.2;;
68473;SDS011;55461;52.066;5.194;2023-01-29T04:51:07;34.0;;;22.4;;
68473;SDS011;55461;52.066;5.194;2023-01-29T04:52:51;33.4;;;21.6;;
68473;SDS011;55461;52.066;5.194;2023-01-29T04:54:41;34.5;;;22.1;;
68473;SDS011;55461;52.066;5.194;2023-01-29T04:57:15;34.31;;;22.4;;
68473;SDS011;55461;52.066;5.194;2023-01-29T04:58:59;33.21;;;22.4;;
68473;SDS011;55461;52.066;5.194;2023-01-29T05:00:42;34.71;;;22.5;;
68473;SDS011;55461;52.066;5.194;2023-01-29T05:02:20;35.21;;;23.1;;
68473;SDS011;55461;52.066;5.194;2023-01-29T05:05:43;35.1;;;22.8;;
68473;SDS011;55461;52.066;5.194;2023-01-29T05:07:23;35.31;;;23.0;;
68473;SDS011;55461;52.066;5.194;2023-01-29T05:09:04;37.31;;;23.2;;
68473;SDS011;55461;52.066;5.194;2023-01-29T05:10:42;35.81;;;22.5;;
68473;SDS011;55461;52.066;5.194;2023-01-29T05:14:02;33.9;;;22.7;;
68473;SDS011;55461;52.066;5.194;2023-01-29T05:15:43;34.6;;;23.1;;
68473;SDS011;55461;52.066;5.194;2023-01-29T05:17:24;35.4;;;22.9;;
68473;SDS011;55461;52.066;5.194;2023-01-29T05:19:02;37.5;;;23.1;;
68473;SDS011;55461;52.066;5.194;2023-01-29T05:22:21;33.71;;;22.8;;
68473;SDS011;55461;52.066;5.194;2023-01-29T05:24:08;35.4;;;23.4;;
68473;SDS011;55461;52.066;5.194;2023-01-29T05:25:46;34.6;;;22.8;;
68473;SDS011;55461;52.066;5.194;2023-01-29T05:28:28;32.9;;;22.0;;
68473;SDS011;55461;52.066;5.194;2023-01-29T05:30:06;36.5;;;22.9;;
68473;SDS011;55461;52.066;5.194;2023-01-29T05:31:45;35.9;;;23.3;;
68473;SDS011;55461;52.066;5.194;2023-01-29T05:35:02;34.9;;;22.3;;
68473;SDS011;55461;52.066;5.194;2023-01-29T05:36:39;33.9;;;22.1;;
68473;SDS011;55461;52.066;5.194;2023-01-29T05:38:16;36.71;;;22.6;;
68473;SDS011;55461;52.066;5.194;2023-01-29T05:39:54;35.5;;;22.4;;
68473;SDS011;55461;52.066;5.194;2023-01-29T05:43:12;34.71;;;22.5;;
68473;SDS011;55461;52.066;5.194;2023-01-29T05:44:52;34.21;;;22.2;;
68473;SDS011;55461;52.066;5.194;2023-01-29T05:46:28;33.3;;;22.3;;
68473;SDS011;55461;52.066;5.194;2023-01-29T05:48:05;34.21;;;22.6;;
68473;SDS011;55461;52.066;5.194;2023-01-29T05:51:19;32.9;;;22.1;;
68473;SDS011;55461;52.066;5.194;2023-01-29T05:52:56;35.81;;;22.5;;
68473;SDS011;55461;52.066;5.194;2023-01-29T05:54:32;31.8;;;21.1;;
68473;SDS011;55461;52.066;5.194;2023-01-29T05:57:45;32.6;;;22.3;;
68473;SDS011;55461;52.066;5.194;2023-01-29T05:59:22;35.9;;;23.0;;
68473;SDS011;55461;52.066;5.194;2023-01-29T06:01:06;30.9;;;21.0;;
68473;SDS011;55461;52.066;5.194;2023-01-29T06:02:44;31.6;;;21.1;;
68473;SDS011;55461;52.066;5.194;2023-01-29T06:05:57;35.31;;;21.9;;
68473;SDS011;55461;52.066;5.194;2023-01-29T06:07:33;32.4;;;21.3;;
68473;SDS011;55461;52.066;5.194;2023-01-29T06:09:10;32.5;;;21.4;;
68473;SDS011;55461;52.066;5.194;2023-01-29T06:12:25;32.21;;;21.1;;
68473;SDS011;55461;52.066;5.194;2023-01-29T06:14:02;33.0;;;21.2;;
68473;SDS011;55461;52.066;5.194;2023-01-29T06:15:40;33.21;;;22.0;;
68473;SDS011;55461;52.066;5.194;2023-01-29T06:18:54;37.5;;;21.8;;
68473;SDS011;55461;52.066;5.194;2023-01-29T06:20:31;35.0;;;22.3;;
68473;SDS011;55461;52.066;5.194;2023-01-29T06:22:07;31.6;;;21.7;;
68473;SDS011;55461;52.066;5.194;2023-01-29T06:23:44;33.8;;;21.7;;
68473;SDS011;55461;52.066;5.194;2023-01-29T06:26:58;31.7;;;21.8;;
68473;SDS011;55461;52.066;5.194;2023-01-29T06:28:34;33.8;;;22.2;;
68473;SDS011;55461;52.066;5.194;2023-01-29T06:30:11;32.5;;;21.1;;
68473;SDS011;55461;52.066;5.194;2023-01-29T06:33:24;30.8;;;20.3;;
68473;SDS011;55461;52.066;5.194;2023-01-29T06:35:01;30.3;;;20.6;;
68473;SDS011;55461;52.066;5.194;2023-01-29T06:36:40;33.6;;;21.6;;
68473;SDS011;55461;52.066;5.194;2023-01-29T06:38:17;31.7;;;20.9;;
68473;SDS011;55461;52.066;5.194;2023-01-29T06:41:30;32.71;;;21.8;;
68473;SDS011;55461;52.066;5.194;2023-01-29T06:43:06;30.8;;;20.0;;
68473;SDS011;55461;52.066;5.194;2023-01-29T06:44:43;30.6;;;20.8;;
68473;SDS011;55461;52.066;5.194;2023-01-29T06:47:56;32.0;;;20.0;;
68473;SDS011;55461;52.066;5.194;2023-01-29T06:49:32;30.4;;;19.7;;
68473;SDS011;55461;52.066;5.194;2023-01-29T06:51:10;30.7;;;19.7;;
68473;SDS011;55461;52.066;5.194;2023-01-29T06:54:23;31.4;;;20.7;;
68473;SDS011;55461;52.066;5.194;2023-01-29T06:55:59;27.7;;;19.41;;
68473;SDS011;55461;52.066;5.194;2023-01-29T06:57:36;34.21;;;20.6;;
68473;SDS011;55461;52.066;5.194;2023-01-29T06:59:13;29.3;;;20.0;;
68473;SDS011;55461;52.066;5.194;2023-01-29T07:02:28;30.6;;;20.6;;
68473;SDS011;55461;52.066;5.194;2023-01-29T07:05:41;31.4;;;20.3;;
68473;SDS011;55461;52.066;5.194;2023-01-29T07:08:54;27.7;;;19.2;;
68473;SDS011;55461;52.066;5.194;2023-01-29T07:10:31;32.8;;;21.1;;
68473;SDS011;55461;52.066;5.194;2023-01-29T07:12:07;33.21;;;21.1;;
68473;SDS011;55461;52.066;5.194;2023-01-29T07:15:21;32.1;;;20.8;;
68473;SDS011;55461;52.066;5.194;2023-01-29T07:16:58;30.9;;;20.9;;
68473;SDS011;55461;52.066;5.194;2023-01-29T07:18:36;27.7;;;19.0;;
68473;SDS011;55461;52.066;5.194;2023-01-29T07:20:12;31.6;;;20.7;;
68473;SDS011;55461;52.066;5.194;2023-01-29T07:23:24;27.7;;;20.11;;
68473;SDS011;55461;52.066;5.194;2023-01-29T07:25:01;28.4;;;20.0;;
68473;SDS011;55461;52.066;5.194;2023-01-29T07:26:38;30.6;;;20.41;;
68473;SDS011;55461;52.066;5.194;2023-01-29T07:29:52;30.1;;;20.5;;
68473;SDS011;55461;52.066;5.194;2023-01-29T07:31:29;29.8;;;20.2;;
68473;SDS011;55461;52.066;5.194;2023-01-29T07:33:07;30.2;;;20.8;;
68473;SDS011;55461;52.066;5.194;2023-01-29T07:34:45;27.4;;;19.5;;
68473;SDS011;55461;52.066;5.194;2023-01-29T07:37:59;28.8;;;20.0;;
68473;SDS011;55461;52.066;5.194;2023-01-29T07:39:35;28.0;;;19.2;;
68473;SDS011;55461;52.066;5.194;2023-01-29T07:41:11;29.1;;;19.41;;
68473;SDS011;55461;52.066;5.194;2023-01-29T07:44:25;29.8;;;19.8;;
68473;SDS011;55461;52.066;5.194;2023-01-29T07:46:01;29.5;;;19.7;;
68473;SDS011;55461;52.066;5.194;2023-01-29T07:47:39;28.9;;;19.3;;
68473;SDS011;55461;52.066;5.194;2023-01-29T07:50:53;30.3;;;20.11;;
68473;SDS011;55461;52.066;5.194;2023-01-29T07:52:30;29.5;;;20.11;;
68473;SDS011;55461;52.066;5.194;2023-01-29T07:54:08;29.7;;;20.0;;
68473;SDS011;55461;52.066;5.194;2023-01-29T07:55:45;28.3;;;19.3;;
68473;SDS011;55461;52.066;5.194;2023-01-29T07:58:59;29.1;;;20.11;;
68473;SDS011;55461;52.066;5.194;2023-01-29T08:00:36;29.0;;;19.8;;
68473;SDS011;55461;52.066;5.194;2023-01-29T08:02:13;35.5;;;20.7;;
68473;SDS011;55461;52.066;5.194;2023-01-29T08:05:27;30.1;;;20.3;;
68473;SDS011;55461;52.066;5.194;2023-01-29T08:07:04;32.6;;;21.5;;
68473;SDS011;55461;52.066;5.194;2023-01-29T08:08:41;30.6;;;19.8;;
68473;SDS011;55461;52.066;5.194;2023-01-29T08:10:18;29.2;;;19.8;;
68473;SDS011;55461;52.066;5.194;2023-01-29T08:13:33;30.8;;;20.0;;
68473;SDS011;55461;52.066;5.194;2023-01-29T08:15:10;29.0;;;19.7;;
68473;SDS011;55461;52.066;5.194;2023-01-29T08:16:47;29.3;;;19.8;;
68473;SDS011;55461;52.066;5.194;2023-01-29T08:20:02;28.9;;;20.41;;
68473;SDS011;55461;52.066;5.194;2023-01-29T08:21:38;30.6;;;20.2;;
68473;SDS011;55461;52.066;5.194;2023-01-29T08:23:15;28.5;;;19.41;;
68473;SDS011;55461;52.066;5.194;2023-01-29T08:26:28;29.9;;;20.11;;
68473;SDS011;55461;52.066;5.194;2023-01-29T08:28:05;27.8;;;19.41;;
68473;SDS011;55461;52.066;5.194;2023-01-29T08:29:42;27.2;;;19.2;;
68473;SDS011;55461;52.066;5.194;2023-01-29T08:31:19;30.1;;;19.0;;
68473;SDS011;55461;52.066;5.194;2023-01-29T08:34:32;28.4;;;19.61;;
68473;SDS011;55461;52.066;5.194;2023-01-29T08:36:10;29.2;;;19.91;;
68473;SDS011;55461;52.066;5.194;2023-01-29T08:37:54;27.2;;;19.0;;
68473;SDS011;55461;52.066;5.194;2023-01-29T08:41:08;28.2;;;18.91;;
68473;SDS011;55461;52.066;5.194;2023-01-29T08:42:44;28.7;;;18.7;;
68473;SDS011;55461;52.066;5.194;2023-01-29T08:44:20;29.0;;;19.91;;
68473;SDS011;55461;52.066;5.194;2023-01-29T08:45:57;28.2;;;19.2;;
68473;SDS011;55461;52.066;5.194;2023-01-29T08:49:11;28.2;;;19.5;;
68473;SDS011;55461;52.066;5.194;2023-01-29T08:50:48;26.9;;;19.11;;
68473;SDS011;55461;52.066;5.194;2023-01-29T08:52:24;28.6;;;19.5;;
68473;SDS011;55461;52.066;5.194;2023-01-29T08:55:37;29.8;;;19.8;;
68473;SDS011;55461;52.066;5.194;2023-01-29T08:57:14;28.8;;;19.8;;
68473;SDS011;55461;52.066;5.194;2023-01-29T08:58:51;28.2;;;19.2;;
68473;SDS011;55461;52.066;5.194;2023-01-29T09:02:05;29.7;;;19.8;;
68473;SDS011;55461;52.066;5.194;2023-01-29T09:03:43;27.0;;;18.91;;
68473;SDS011;55461;52.066;5.194;2023-01-29T09:05:19;25.4;;;17.7;;
68473;SDS011;55461;52.066;5.194;2023-01-29T09:06:56;28.1;;;18.3;;
68473;SDS011;55461;52.066;5.194;2023-01-29T09:10:11;29.3;;;19.5;;
68473;SDS011;55461;52.066;5.194;2023-01-29T09:11:48;26.2;;;18.3;;
68473;SDS011;55461;52.066;5.194;2023-01-29T09:13:24;26.1;;;18.61;;
68473;SDS011;55461;52.066;5.194;2023-01-29T09:16:38;27.8;;;19.11;;
68473;SDS011;55461;52.066;5.194;2023-01-29T09:18:15;28.1;;;19.41;;
68473;SDS011;55461;52.066;5.194;2023-01-29T09:19:52;33.6;;;22.0;;
68473;SDS011;55461;52.066;5.194;2023-01-29T09:21:29;29.0;;;18.61;;
68473;SDS011;55461;52.066;5.194;2023-01-29T09:24:44;27.6;;;19.61;;
68473;SDS011;55461;52.066;5.194;2023-01-29T09:26:21;35.5;;;22.6;;
68473;SDS011;55461;52.066;5.194;2023-01-29T09:27:58;29.9;;;21.1;;
68473;SDS011;55461;52.066;5.194;2023-01-29T09:31:12;35.21;;;22.3;;
68473;SDS011;55461;52.066;5.194;2023-01-29T09:32:49;32.6;;;21.4;;
68473;SDS011;55461;52.066;5.194;2023-01-29T09:34:26;34.9;;;23.4;;
68473;SDS011;55461;52.066;5.194;2023-01-29T09:37:39;43.8;;;26.7;;
68473;SDS011;55461;52.066;5.194;2023-01-29T09:39:15;34.21;;;22.9;;
68473;SDS011;55461;52.066;5.194;2023-01-29T09:40:54;30.5;;;20.6;;
68473;SDS011;55461;52.066;5.194;2023-01-29T09:42:42;29.6;;;20.41;;
68473;SDS011;55461;52.066;5.194;2023-01-29T09:46:29;29.6;;;19.8;;
68473;SDS011;55461;52.066;5.194;2023-01-29T09:48:13;28.2;;;19.91;;
68473;SDS011;55461;52.066;5.194;2023-01-29T09:49:50;30.3;;;20.3;;
68473;SDS011;55461;52.066;5.194;2023-01-29T09:51:33;27.6;;;19.41;;
68473;SDS011;55461;52.066;5.194;2023-01-29T09:53:16;31.2;;;20.2;;
68473;SDS011;55461;52.066;5.194;2023-01-29T09:54:58;27.9;;;19.41;;
68473;SDS011;55461;52.066;5.194;2023-01-29T09:58:22;26.5;;;18.61;;
68473;SDS011;55461;52.066;5.194;2023-01-29T10:00:03;27.3;;;19.0;;
68473;SDS011;55461;52.066;5.194;2023-01-29T10:01:43;30.2;;;20.11;;
68473;SDS011;55461;52.066;5.194;2023-01-29T10:03:34;29.0;;;19.8;;
68473;SDS011;55461;52.066;5.194;2023-01-29T10:05:29;30.2;;;19.7;;
68473;SDS011;55461;52.066;5.194;2023-01-29T10:10:09;28.6;;;19.61;;
68473;SDS011;55461;52.066;5.194;2023-01-29T10:11:55;29.4;;;20.41;;
68473;SDS011;55461;52.066;5.194;2023-01-29T10:13:47;31.7;;;20.9;;
68473;SDS011;55461;52.066;5.194;2023-01-29T10:17:36;29.8;;;20.7;;
68473;SDS011;55461;52.066;5.194;2023-01-29T10:20:00;30.4;;;20.6;;
68473;SDS011;55461;52.066;5.194;2023-01-29T10:23:02;31.5;;;21.2;;
68473;SDS011;55461;52.066;5.194;2023-01-29T10:24:54;29.7;;;20.8;;
68473;SDS011;55461;52.066;5.194;2023-01-29T10:26:36;31.6;;;21.0;;
68473;SDS011;55461;52.066;5.194;2023-01-29T10:29:55;32.6;;;21.4;;
68473;SDS011;55461;52.066;5.194;2023-01-29T10:31:34;29.6;;;21.2;;
68473;SDS011;55461;52.066;5.194;2023-01-29T10:33:17;30.7;;;20.7;;
68473;SDS011;55461;52.066;5.194;2023-01-29T10:35:04;31.4;;;21.3;;
68473;SDS011;55461;52.066;5.194;2023-01-29T10:36:58;31.7;;;21.2;;
68473;SDS011;55461;52.066;5.194;2023-01-29T10:40:19;31.4;;;22.6;;
68473;SDS011;55461;52.066;5.194;2023-01-29T10:42:01;30.5;;;21.2;;
68473;SDS011;55461;52.066;5.194;2023-01-29T10:43:57;31.7;;;21.8;;
68473;SDS011;55461;52.066;5.194;2023-01-29T10:45:48;31.6;;;21.3;;
68473;SDS011;55461;52.066;5.194;2023-01-29T10:47:39;31.1;;;20.9;;
68473;SDS011;55461;52.066;5.194;2023-01-29T10:50:36;31.7;;;21.9;;
68473;SDS011;55461;52.066;5.194;2023-01-29T10:52:26;31.6;;;21.7;;
68473;SDS011;55461;52.066;5.194;2023-01-29T10:54:19;30.9;;;21.6;;
68473;SDS011;55461;52.066;5.194;2023-01-29T10:56:15;30.9;;;22.1;;
68473;SDS011;55461;52.066;5.194;2023-01-29T10:58:06;32.9;;;22.6;;
68473;SDS011;55461;52.066;5.194;2023-01-29T10:59:58;34.6;;;22.5;;
68473;SDS011;55461;52.066;5.194;2023-01-29T11:03:21;32.6;;;21.4;;
68473;SDS011;55461;52.066;5.194;2023-01-29T11:05:00;35.0;;;23.3;;
68473;SDS011;55461;52.066;5.194;2023-01-29T11:06:37;35.1;;;23.1;;
68473;SDS011;55461;52.066;5.194;2023-01-29T11:08:15;34.5;;;22.9;;
68473;SDS011;55461;52.066;5.194;2023-01-29T11:11:38;33.71;;;22.6;;
68473;SDS011;55461;52.066;5.194;2023-01-29T11:13:18;37.9;;;25.3;;
68473;SDS011;55461;52.066;5.194;2023-01-29T11:15:13;36.0;;;24.5;;
68473;SDS011;55461;52.066;5.194;2023-01-29T11:16:55;37.5;;;25.2;;
68473;SDS011;55461;52.066;5.194;2023-01-29T11:20:29;39.6;;;26.3;;
68473;SDS011;55461;52.066;5.194;2023-01-29T11:22:11;37.4;;;25.8;;
68473;SDS011;55461;52.066;5.194;2023-01-29T11:23:49;37.5;;;24.9;;
68473;SDS011;55461;52.066;5.194;2023-01-29T11:25:39;38.71;;;26.1;;
68473;SDS011;55461;52.066;5.194;2023-01-29T11:27:31;39.1;;;26.4;;
68473;SDS011;55461;52.066;5.194;2023-01-29T11:29:33;37.71;;;24.2;;
68473;SDS011;55461;52.066;5.194;2023-01-29T11:31:20;42.3;;;26.8;;
68473;SDS011;55461;52.066;5.194;2023-01-29T11:34:57;37.21;;;24.9;;
68473;SDS011;55461;52.066;5.194;2023-01-29T11:36:39;39.81;;;26.0;;
68473;SDS011;55461;52.066;5.194;2023-01-29T11:38:17;38.4;;;25.0;;
68473;SDS011;55461;52.066;5.194;2023-01-29T11:40:00;37.4;;;25.0;;
68473;SDS011;55461;52.066;5.194;2023-01-29T11:42:03;37.0;;;25.1;;
68473;SDS011;55461;52.066;5.194;2023-01-29T11:43:40;38.1;;;25.9;;
68473;SDS011;55461;52.066;5.194;2023-01-29T11:47:17;37.5;;;24.7;;
68473;SDS011;55461;52.066;5.194;2023-01-29T11:48:55;42.0;;;26.3;;
68473;SDS011;55461;52.066;5.194;2023-01-29T11:50:32;38.0;;;25.2;;
68473;SDS011;55461;52.066;5.194;2023-01-29T11:52:09;38.31;;;25.7;;
68473;SDS011;55461;52.066;5.194;2023-01-29T11:55:32;38.21;;;25.5;;
68473;SDS011;55461;52.066;5.194;2023-01-29T11:57:16;42.0;;;26.0;;
68473;SDS011;55461;52.066;5.194;2023-01-29T11:59:12;47.4;;;27.8;;
68473;SDS011;55461;52.066;5.194;2023-01-29T12:01:07;48.3;;;29.3;;
68473;SDS011;55461;52.066;5.194;2023-01-29T12:02:46;45.8;;;28.5;;
68473;SDS011;55461;52.066;5.194;2023-01-29T12:06:06;41.0;;;26.8;;
68473;SDS011;55461;52.066;5.194;2023-01-29T12:07:53;43.2;;;27.2;;
68473;SDS011;55461;52.066;5.194;2023-01-29T12:09:33;41.4;;;27.2;;
68473;SDS011;55461;52.066;5.194;2023-01-29T12:11:12;38.21;;;26.0;;
68473;SDS011;55461;52.066;5.194;2023-01-29T12:13:09;40.31;;;26.2;;
68473;SDS011;55461;52.066;5.194;2023-01-29T12:17:12;39.1;;;26.0;;
68473;SDS011;55461;52.066;5.194;2023-01-29T12:20:43;41.6;;;25.5;;
68473;SDS011;55461;52.066;5.194;2023-01-29T12:22:36;36.71;;;25.3;;
68473;SDS011;55461;52.066;5.194;2023-01-29T12:24:23;40.6;;;26.2;;
68473;SDS011;55461;52.066;5.194;2023-01-29T12:26:10;39.6;;;26.4;;
68473;SDS011;55461;52.066;5.194;2023-01-29T12:27:52;50.0;;;31.0;;
68473;SDS011;55461;52.066;5.194;2023-01-29T12:31:24;40.4;;;26.7;;
68473;SDS011;55461;52.066;5.194;2023-01-29T12:33:11;38.31;;;25.3;;
68473;SDS011;55461;52.066;5.194;2023-01-29T12:35:00;38.6;;;26.4;;
68473;SDS011;55461;52.066;5.194;2023-01-29T12:36:43;37.31;;;25.2;;
68473;SDS011;55461;52.066;5.194;2023-01-29T12:38:26;40.9;;;25.9;;
68473;SDS011;55461;52.066;5.194;2023-01-29T12:41:49;39.0;;;25.9;;
68473;SDS011;55461;52.066;5.194;2023-01-29T12:43:32;39.21;;;25.8;;
68473;SDS011;55461;52.066;5.194;2023-01-29T12:45:15;40.21;;;27.2;;
68473;SDS011;55461;52.066;5.194;2023-01-29T12:46:54;39.0;;;26.1;;
68473;SDS011;55461;52.066;5.194;2023-01-29T12:48:36;40.4;;;26.5;;
68473;SDS011;55461;52.066;5.194;2023-01-29T12:51:59;38.9;;;26.1;;
68473;SDS011;55461;52.066;5.194;2023-01-29T12:53:43;40.6;;;26.8;;
68473;SDS011;55461;52.066;5.194;2023-01-29T12:55:28;39.21;;;26.7;;
68473;SDS011;55461;52.066;5.194;2023-01-29T12:57:15;38.5;;;26.2;;
68473;SDS011;55461;52.066;5.194;2023-01-29T13:00:41;39.0;;;26.7;;
68473;SDS011;55461;52.066;5.194;2023-01-29T13:02:23;38.81;;;26.2;;
68473;SDS011;55461;52.066;5.194;2023-01-29T13:04:08;40.6;;;26.2;;